Time;durP1;ratioP1;P1;durP2;ratioP2;P2;SDS_P1;SDS_P2;PMS_P1;PMS_P2;Temp;Humidity;BMP_temperature;BMP_pressure;BME280_temperature;BME280_humidity;BME280_pressure;Samples;Min_cycle;Max_cycle;Signal;HPM_P1;HPM_P2
2023/01/15 00:01:22;;;;;;;1.02;0.50;;;15.50;69.30;;;;;;2341168;53;21602;-72
2023/01/15 00:03:49;;;;;;;1.23;0.40;;;15.60;69.10;;;;;;2383063;53;21696;-74
2023/01/15 00:06:15;;;;;;;1.30;0.43;;;15.60;69.80;;;;;;2341338;54;21345;-74
2023/01/15 00:08:42;;;;;;;2.60;0.68;;;15.60;69.60;;;;;;2341684;54;20947;-74
2023/01/15 00:11:09;;;;;;;1.40;0.50;;;15.60;69.30;;;;;;2340822;54;21279;-72
2023/01/15 00:13:35;;;;;;;1.50;0.50;;;15.60;69.40;;;;;;2341917;53;20979;-72
2023/01/15 00:16:12;;;;;;;0.40;0.20;;;15.60;69.40;;;;;;2341216;54;21309;-73
2023/01/15 00:18:38;;;;;;;1.17;0.40;;;15.70;69.00;;;;;;2349281;53;20986;-73
2023/01/15 00:21:06;;;;;;;0.82;0.30;;;15.60;69.30;;;;;;2341418;54;20923;-74
2023/01/15 00:29:03;;;;;;;2.03;0.40;;;15.70;69.40;;;;;;2341569;54;20927;-74
2023/01/15 00:31:30;;;;;;;0.73;0.30;;;15.60;69.20;;;;;;2341582;53;21018;-71
2023/01/15 00:33:56;;;;;;;0.90;0.30;;;15.60;69.40;;;;;;2341269;53;20939;-74
2023/01/15 00:36:22;;;;;;;1.62;0.40;;;15.60;69.40;;;;;;2340706;54;21554;-73
2023/01/15 00:38:49;;;;;;;1.05;0.25;;;15.60;69.40;;;;;;2341300;54;21082;-73
2023/01/15 00:41:15;;;;;;;1.50;0.40;;;15.60;69.50;;;;;;2340690;54;21034;-73
2023/01/15 00:43:41;;;;;;;1.30;0.45;;;15.60;69.50;;;;;;2346998;53;21018;-74
2023/01/15 00:46:08;;;;;;;0.68;0.30;;;15.60;69.70;;;;;;2340858;53;20951;-71
2023/01/15 00:48:35;;;;;;;1.02;0.30;;;15.60;69.60;;;;;;2340724;54;21035;-73
2023/01/15 00:51:02;;;;;;;1.05;0.30;;;15.60;69.40;;;;;;2340863;54;21031;-72
2023/01/15 00:53:28;;;;;;;1.20;0.40;;;15.60;69.30;;;;;;2341155;54;20999;-72
2023/01/15 00:55:54;;;;;;;2.05;0.60;;;15.60;69.50;;;;;;2341055;54;20955;-74
2023/01/15 00:58:21;;;;;;;1.10;0.40;;;15.60;69.50;;;;;;2341131;54;21453;-71
2023/01/15 01:00:53;;;;;;;1.02;0.40;;;15.60;69.60;;;;;;2382537;53;20959;-71
2023/01/15 01:03:19;;;;;;;0.50;0.30;;;15.60;69.50;;;;;;2340918;53;21010;-73
2023/01/15 01:05:46;;;;;;;1.45;0.50;;;15.60;69.70;;;;;;2346953;53;20947;-74
2023/01/15 01:08:12;;;;;;;1.35;0.40;;;15.60;69.90;;;;;;2497734;53;20927;-73
2023/01/15 01:10:41;;;;;;;0.85;0.30;;;15.60;69.80;;;;;;2371084;53;21370;-70
2023/01/15 01:13:08;;;;;;;0.55;0.20;;;15.60;69.80;;;;;;2340710;53;20967;-72
2023/01/15 01:15:35;;;;;;;0.30;0.30;;;15.60;70.00;;;;;;2349937;53;20951;-73
2023/01/15 01:18:02;;;;;;;0.20;0.20;;;15.70;70.10;;;;;;2370648;53;21302;-74
2023/01/15 01:20:28;;;;;;;0.68;0.20;;;15.60;70.10;;;;;;2373463;53;20939;-73
2023/01/15 01:22:55;;;;;;;0.77;0.35;;;15.70;70.20;;;;;;2339635;54;21317;-75
2023/01/15 01:25:21;;;;;;;0.25;0.20;;;15.70;70.20;;;;;;2340511;54;21358;-75
2023/01/15 01:27:47;;;;;;;1.85;0.35;;;15.70;70.30;;;;;;2341926;54;21443;-75
2023/01/15 01:30:14;;;;;;;1.27;0.40;;;15.70;70.20;;;;;;2341095;54;20995;-74
2023/01/15 01:32:44;;;;;;;0.80;0.28;;;15.70;70.30;;;;;;2340697;53;20987;-70
2023/01/15 01:35:10;;;;;;;2.42;0.20;;;15.70;70.00;;;;;;2357784;53;20919;-72
2023/01/15 01:37:36;;;;;;;0.40;0.20;;;15.70;70.30;;;;;;2341817;53;20996;-75
2023/01/15 01:40:03;;;;;;;0.37;0.20;;;15.70;70.30;;;;;;2340278;54;21365;-72
2023/01/15 01:42:29;;;;;;;0.68;0.25;;;15.70;70.30;;;;;;2341195;53;21326;-72
2023/01/15 01:45:02;;;;;;;0.62;0.20;;;15.80;70.50;;;;;;2341821;54;20915;-73
2023/01/15 01:47:28;;;;;;;1.65;0.30;;;15.80;70.30;;;;;;2341833;54;20971;-72
2023/01/15 01:49:58;;;;;;;0.80;0.30;;;15.80;70.60;;;;;;2385720;53;20991;-75
2023/01/15 01:52:28;;;;;;;0.25;0.13;;;15.80;70.50;;;;;;2442557;53;21075;-72
2023/01/15 01:54:54;;;;;;;0.57;0.20;;;15.80;70.70;;;;;;2341782;54;21560;-72
2023/01/15 01:57:20;;;;;;;0.62;0.20;;;15.80;70.50;;;;;;2341151;53;20924;-76
2023/01/15 01:59:47;;;;;;;0.55;0.30;;;15.80;70.50;;;;;;2341701;53;20947;-73
2023/01/15 02:02:13;;;;;;;0.60;0.30;;;15.80;70.40;;;;;;2346524;53;20975;-73
2023/01/15 02:04:39;;;;;;;0.43;0.17;;;15.80;70.30;;;;;;2342017;54;21377;-72
2023/01/15 02:07:06;;;;;;;0.52;0.20;;;15.90;70.40;;;;;;2341440;54;20975;-73
2023/01/15 02:09:32;;;;;;;0.50;0.20;;;15.90;70.60;;;;;;2341214;53;21427;-73
2023/01/15 02:12:08;;;;;;;0.20;0.20;;;15.90;70.60;;;;;;2341797;54;21006;-74
2023/01/15 02:14:41;;;;;;;0.77;0.32;;;15.90;70.10;;;;;;2341839;53;21027;-74
2023/01/15 02:17:29;;;;;;;0.45;0.20;;;15.90;70.50;;;;;;2468252;53;21385;-73
2023/01/15 02:20:17;;;;;;;1.27;0.25;;;16.00;70.00;;;;;;2340952;53;21515;-72
2023/01/15 02:23:22;;;;;;;0.85;0.20;;;16.00;70.30;;;;;;2420434;53;20915;-72
2023/01/15 02:27:09;;;;;;;1.35;0.30;;;16.00;69.60;;;;;;2341916;53;21014;-72
2023/01/15 02:29:55;;;;;;;0.45;0.20;;;16.00;69.70;;;;;;2341119;54;21024;-74
2023/01/15 02:32:40;;;;;;;0.70;0.22;;;16.00;70.10;;;;;;2341726;54;21219;-75
2023/01/15 02:35:12;;;;;;;0.90;0.32;;;16.10;70.10;;;;;;2345559;54;21424;-74
2023/01/15 02:37:40;;;;;;;1.92;0.30;;;16.10;70.30;;;;;;2333049;54;21262;-75
2023/01/15 02:40:07;;;;;;;0.68;0.20;;;16.10;70.60;;;;;;2337110;54;21011;-73
2023/01/15 02:42:33;;;;;;;1.37;0.30;;;16.10;70.50;;;;;;2341495;53;20932;-73
2023/01/15 02:45:00;;;;;;;0.82;0.30;;;16.10;70.50;;;;;;2392878;53;20968;-72
2023/01/15 02:47:29;;;;;;;0.65;0.30;;;16.10;70.60;;;;;;2346468;53;21042;-72
2023/01/15 02:49:57;;;;;;;1.58;0.85;;;16.10;70.50;;;;;;2342319;54;21002;-73
2023/01/15 02:52:33;;;;;;;0.55;0.20;;;16.10;70.40;;;;;;2395434;53;20995;-75
2023/01/15 02:55:07;;;;;;;0.45;0.20;;;16.10;70.00;;;;;;2342284;54;21018;-73
2023/01/15 02:57:34;;;;;;;2.47;0.57;;;16.20;70.20;;;;;;2341755;54;20939;-75
2023/01/15 03:00:02;;;;;;;0.57;0.20;;;16.20;70.30;;;;;;2341884;53;21322;-75
2023/01/15 03:02:32;;;;;;;0.37;0.20;;;16.20;70.40;;;;;;2341651;54;21384;-75
2023/01/15 03:05:17;;;;;;;0.50;0.20;;;16.20;70.20;;;;;;2414728;54;20958;-75
2023/01/15 03:07:54;;;;;;;1.42;0.30;;;16.20;69.90;;;;;;2361990;53;21295;-73
2023/01/15 03:10:24;;;;;;;1.33;0.30;;;16.20;69.60;;;;;;2341421;54;21515;-73
2023/01/15 03:13:01;;;;;;;1.10;0.20;;;16.20;70.00;;;;;;2341456;54;20951;-72
2023/01/15 03:16:35;;;;;;;0.30;0.20;;;16.20;69.60;;;;;;2341590;54;22153;-70
2023/01/15 03:19:12;;;;;;;0.43;0.20;;;16.20;69.80;;;;;;2587699;53;20956;-71
2023/01/15 03:21:51;;;;;;;0.47;0.20;;;16.20;69.70;;;;;;2341903;54;21029;-72
2023/01/15 03:24:32;;;;;;;1.95;0.30;;;16.20;69.90;;;;;;2341482;54;20982;-73
2023/01/15 03:26:59;;;;;;;1.05;0.20;;;16.20;70.00;;;;;;2341942;54;21419;-74
2023/01/15 03:29:28;;;;;;;0.20;0.20;;;16.20;70.00;;;;;;2556209;53;21063;-73
2023/01/15 03:31:54;;;;;;;0.60;0.20;;;16.20;70.00;;;;;;2394839;53;21377;-76
2023/01/15 03:34:20;;;;;;;0.68;0.30;;;16.20;70.10;;;;;;2341221;54;20927;-74
2023/01/15 03:36:47;;;;;;;0.60;0.20;;;16.20;70.20;;;;;;2342176;54;21418;-71
2023/01/15 03:39:13;;;;;;;0.65;0.22;;;16.20;70.20;;;;;;2341007;54;20955;-74
2023/01/15 03:45:14;;;;;;;0.57;0.20;;;16.20;70.20;;;;;;2347913;53;20963;-74
2023/01/15 03:49:03;;;;;;;0.50;0.20;;;16.20;69.00;;;;;;2341716;54;21026;-72
2023/01/15 03:51:41;;;;;;;0.52;0.17;;;16.20;68.90;;;;;;2341902;53;20975;-75
2023/01/15 03:54:21;;;;;;;0.75;0.20;;;16.20;70.00;;;;;;2341785;53;20987;-72
2023/01/15 03:57:04;;;;;;;0.40;0.20;;;16.20;70.20;;;;;;2341919;54;20971;-72
2023/01/15 03:59:38;;;;;;;0.68;0.30;;;16.20;69.90;;;;;;2318401;54;21894;-73
2023/01/15 04:02:05;;;;;;;0.45;0.20;;;16.20;70.00;;;;;;2341743;53;21011;-72
2023/01/15 04:04:32;;;;;;;0.47;0.20;;;16.20;70.40;;;;;;2341571;54;21425;-74
2023/01/15 04:06:59;;;;;;;0.13;0.10;;;16.20;70.50;;;;;;2342003;54;20916;-73
2023/01/15 04:09:25;;;;;;;1.08;0.20;;;16.20;70.40;;;;;;2341066;54;20915;-76
2023/01/15 04:11:51;;;;;;;1.80;0.22;;;16.20;70.40;;;;;;2342164;53;21453;-73
2023/01/15 04:14:17;;;;;;;0.57;0.20;;;16.20;70.40;;;;;;2465745;53;20998;-73
2023/01/15 04:16:44;;;;;;;0.88;0.30;;;16.20;70.40;;;;;;2472883;53;20970;-74
2023/01/15 04:19:10;;;;;;;0.65;0.20;;;16.20;70.60;;;;;;2341354;54;21467;-71
2023/01/15 04:21:37;;;;;;;0.88;0.28;;;16.20;70.70;;;;;;2341343;54;20947;-74
2023/01/15 04:24:03;;;;;;;1.00;0.30;;;16.20;70.50;;;;;;2341850;54;21345;-75
2023/01/15 04:26:29;;;;;;;0.28;0.20;;;16.20;70.40;;;;;;2341538;53;21425;-72
2023/01/15 04:28:56;;;;;;;2.85;0.40;;;16.20;70.50;;;;;;2342197;54;21018;-74
2023/01/15 04:31:23;;;;;;;0.47;0.20;;;16.30;70.70;;;;;;2340989;54;20978;-73
2023/01/15 04:33:49;;;;;;;0.65;0.30;;;16.20;70.50;;;;;;2341769;54;20927;-72
2023/01/15 04:36:15;;;;;;;1.30;0.30;;;16.20;70.40;;;;;;2341266;54;20919;-73
2023/01/15 04:38:42;;;;;;;0.32;0.15;;;16.20;70.20;;;;;;2341368;54;20987;-73
2023/01/15 04:44:05;;;;;;;0.95;0.37;;;16.20;70.30;;;;;;2341943;53;20919;-71
2023/01/15 04:46:38;;;;;;;0.62;0.20;;;16.20;70.20;;;;;;2433032;53;21431;-72
2023/01/15 04:49:05;;;;;;;0.65;0.25;;;16.20;69.90;;;;;;2588184;53;21455;-73
2023/01/15 04:51:31;;;;;;;0.62;0.32;;;16.20;70.20;;;;;;2587212;53;21207;-72
2023/01/15 04:54:00;;;;;;;0.82;0.32;;;16.10;70.20;;;;;;2455351;53;21453;-72
2023/01/15 04:56:28;;;;;;;0.55;0.30;;;16.10;70.10;;;;;;2587345;53;20979;-75
2023/01/15 04:58:54;;;;;;;0.35;0.20;;;16.10;70.30;;;;;;2549244;53;20931;-75
2023/01/15 05:01:21;;;;;;;0.73;0.30;;;16.10;70.40;;;;;;2341257;53;20935;-73
2023/01/15 05:03:47;;;;;;;0.60;0.25;;;16.10;70.50;;;;;;2341947;53;21057;-73
2023/01/15 05:06:14;;;;;;;0.20;0.10;;;16.10;70.70;;;;;;2568456;53;21054;-73
2023/01/15 05:08:41;;;;;;;0.60;0.17;;;16.10;70.40;;;;;;2471360;53;21531;-71
2023/01/15 05:11:07;;;;;;;0.62;0.20;;;16.10;69.30;;;;;;2341806;54;21006;-75
2023/01/15 05:13:33;;;;;;;0.00;0.00;;;16.00;67.70;;;;;;2341479;53;20959;-73
2023/01/15 05:16:20;;;;;;;0.15;0.00;;;15.80;66.30;;;;;;2341760;54;21917;-73
2023/01/15 05:18:46;;;;;;;0.10;0.00;;;15.70;65.00;;;;;;2342137;53;21094;-76
2023/01/15 05:21:32;;;;;;;0.00;0.00;;;15.50;65.70;;;;;;2347920;53;21475;-73
2023/01/15 05:23:59;;;;;;;0.10;0.10;;;15.20;64.20;;;;;;2318576;54;20939;-74
2023/01/15 05:26:27;;;;;;;0.10;0.10;;;15.00;65.30;;;;;;2495224;53;21415;-75
2023/01/15 05:28:53;;;;;;;0.22;0.15;;;14.80;65.70;;;;;;2342062;54;20998;-74
2023/01/15 05:31:20;;;;;;;0.25;0.10;;;14.70;66.20;;;;;;2364216;53;20995;-74
2023/01/15 05:33:46;;;;;;;0.10;0.10;;;14.50;66.30;;;;;;2341937;54;21447;-77
2023/01/15 05:36:14;;;;;;;0.10;0.10;;;14.40;66.50;;;;;;2341452;53;20971;-77
2023/01/15 05:38:40;;;;;;;0.20;0.17;;;14.20;66.40;;;;;;2470248;53;21313;-74
2023/01/15 05:43:54;;;;;;;0.00;0.00;;;14.00;66.80;;;;;;2411615;53;20964;-74
2023/01/15 05:46:20;;;;;;;0.20;0.10;;;13.90;67.00;;;;;;2340779;54;20931;-75
2023/01/15 05:48:47;;;;;;;0.20;0.17;;;13.70;67.10;;;;;;2409897;53;20995;-75
2023/01/15 05:51:13;;;;;;;0.10;0.10;;;13.60;67.30;;;;;;2479562;53;20919;-74
2023/01/15 05:53:39;;;;;;;0.55;0.20;;;13.50;67.50;;;;;;2574989;53;20923;-74
2023/01/15 05:56:06;;;;;;;0.10;0.10;;;13.40;67.70;;;;;;2428391;53;21307;-75
2023/01/15 05:58:33;;;;;;;0.10;0.00;;;13.30;67.70;;;;;;2587533;53;21456;-74
2023/01/15 06:00:59;;;;;;;0.65;0.10;;;13.20;67.60;;;;;;2341797;54;20968;-75
2023/01/15 06:03:26;;;;;;;0.37;0.22;;;13.10;67.40;;;;;;2356894;53;21665;-76
2023/01/15 06:05:52;;;;;;;0.10;0.10;;;13.00;67.50;;;;;;2341603;54;21030;-76
2023/01/15 06:08:20;;;;;;;0.17;0.17;;;12.90;67.70;;;;;;2341318;53;20899;-75
2023/01/15 06:10:46;;;;;;;0.10;0.10;;;12.80;67.90;;;;;;2342405;54;21357;-77
2023/01/15 06:13:13;;;;;;;0.70;0.10;;;12.70;68.20;;;;;;2468478;53;21310;-75
2023/01/15 06:15:45;;;;;;;0.20;0.10;;;12.60;68.30;;;;;;2341599;54;21007;-77
2023/01/15 06:18:11;;;;;;;0.22;0.10;;;12.60;68.50;;;;;;2372451;53;21187;-75
2023/01/15 06:20:38;;;;;;;0.13;0.10;;;12.50;68.70;;;;;;2374267;53;20982;-75
2023/01/15 06:23:05;;;;;;;0.60;0.10;;;12.40;68.80;;;;;;2341969;54;21441;-77
2023/01/15 06:25:35;;;;;;;0.57;0.10;;;12.40;68.90;;;;;;2341487;54;21583;-75
2023/01/15 06:28:05;;;;;;;0.15;0.15;;;12.30;69.10;;;;;;2342339;54;21424;-77
2023/01/15 06:30:31;;;;;;;0.68;0.20;;;12.30;69.30;;;;;;2341309;54;21737;-76
2023/01/15 06:32:58;;;;;;;0.35;0.30;;;12.20;69.40;;;;;;2342341;54;20920;-78
2023/01/15 06:35:24;;;;;;;0.25;0.15;;;12.20;69.30;;;;;;2448476;53;20907;-77
2023/01/15 06:37:51;;;;;;;0.10;0.10;;;12.10;69.20;;;;;;2404473;53;21352;-77
2023/01/15 06:40:17;;;;;;;0.10;0.10;;;12.10;69.50;;;;;;2373589;53;20907;-77
2023/01/15 06:48:24;;;;;;;0.30;0.20;;;11.90;69.80;;;;;;2341236;54;21374;-76
2023/01/15 06:50:50;;;;;;;0.25;0.20;;;11.90;69.90;;;;;;2405263;53;21077;-77
2023/01/15 06:53:17;;;;;;;0.17;0.17;;;11.80;69.90;;;;;;2340751;54;20983;-75
2023/01/15 06:55:43;;;;;;;0.40;0.20;;;11.80;70.00;;;;;;2341655;54;21729;-77
2023/01/15 06:58:09;;;;;;;0.80;0.22;;;11.80;70.20;;;;;;2341734;54;21007;-77
2023/01/15 07:00:35;;;;;;;0.70;0.30;;;11.70;70.20;;;;;;2341395;54;20963;-77
2023/01/15 07:03:02;;;;;;;0.35;0.30;;;11.70;70.40;;;;;;2341378;54;21011;-75
2023/01/15 07:05:30;;;;;;;0.15;0.15;;;11.70;70.50;;;;;;2341114;53;20959;-75
2023/01/15 07:07:57;;;;;;;0.25;0.25;;;11.70;70.50;;;;;;2341670;53;21030;-76
2023/01/15 07:10:24;;;;;;;0.25;0.20;;;11.60;70.60;;;;;;2587739;53;21226;-76
2023/01/15 07:12:50;;;;;;;0.28;0.22;;;11.60;70.70;;;;;;2422793;53;20983;-77
2023/01/15 07:15:17;;;;;;;0.30;0.20;;;11.60;70.90;;;;;;2360655;53;21540;-75
2023/01/15 07:17:44;;;;;;;0.43;0.25;;;11.60;71.10;;;;;;2468425;53;20947;-75
2023/01/15 07:20:11;;;;;;;0.60;0.30;;;11.50;71.90;;;;;;2347831;53;20954;-75
2023/01/15 07:22:37;;;;;;;0.73;0.30;;;11.60;71.40;;;;;;2341030;54;20986;-77
2023/01/15 07:25:04;;;;;;;0.25;0.20;;;11.60;71.50;;;;;;2342417;54;21011;-77
2023/01/15 07:27:30;;;;;;;0.30;0.20;;;11.60;71.50;;;;;;2341590;53;21011;-76
2023/01/15 07:29:57;;;;;;;0.43;0.30;;;11.60;71.60;;;;;;2342213;54;21352;-76
2023/01/15 07:32:23;;;;;;;0.70;0.30;;;11.60;71.70;;;;;;2341721;54;20959;-76
2023/01/15 07:34:49;;;;;;;0.68;0.28;;;11.60;71.90;;;;;;2355803;53;21010;-75
2023/01/15 07:37:16;;;;;;;1.20;0.50;;;11.60;71.90;;;;;;2341622;54;20975;-77
2023/01/15 07:39:42;;;;;;;1.83;0.80;;;11.60;71.80;;;;;;2539183;53;20927;-76
2023/01/15 07:50:23;;;;;;;1.65;0.80;;;11.60;71.90;;;;;;2402763;53;20915;-76
2023/01/15 07:52:50;;;;;;;1.52;0.80;;;11.70;72.10;;;;;;2563160;53;21814;-78
2023/01/15 07:55:18;;;;;;;2.12;1.33;;;11.60;72.10;;;;;;2341257;54;20946;-76
2023/01/15 07:57:45;;;;;;;2.05;1.20;;;11.60;72.10;;;;;;2342046;54;20923;-75
2023/01/15 08:00:15;;;;;;;2.10;0.90;;;11.60;72.10;;;;;;2424780;53;20988;-75
2023/01/15 08:02:44;;;;;;;1.35;0.65;;;11.60;71.90;;;;;;2345147;53;20980;-75
2023/01/15 08:05:11;;;;;;;1.75;0.65;;;11.60;71.80;;;;;;2371455;53;20923;-75
2023/01/15 08:07:39;;;;;;;1.12;0.50;;;11.60;71.90;;;;;;2341238;54;20990;-75
2023/01/15 08:10:06;;;;;;;0.70;0.40;;;11.60;72.00;;;;;;2342630;54;21635;-75
2023/01/15 08:15:18;;;;;;;1.12;0.50;;;11.60;71.90;;;;;;2341817;54;20923;-75
2023/01/15 08:17:47;;;;;;;0.85;0.40;;;11.60;71.80;;;;;;2342323;53;21667;-76
2023/01/15 08:20:21;;;;;;;0.98;0.40;;;11.60;71.80;;;;;;2345596;53;20999;-75
2023/01/15 08:22:47;;;;;;;1.10;0.40;;;11.60;71.70;;;;;;2452382;53;20951;-75
2023/01/15 08:25:18;;;;;;;0.57;0.30;;;11.60;71.50;;;;;;2342060;54;20919;-75
2023/01/15 08:27:45;;;;;;;0.30;0.20;;;11.50;71.00;;;;;;2342186;54;21015;-75
2023/01/15 08:30:16;;;;;;;0.73;0.30;;;11.50;70.80;;;;;;2373806;53;20927;-75
2023/01/15 08:32:43;;;;;;;0.77;0.32;;;11.50;70.70;;;;;;2587808;53;20979;-75
2023/01/15 08:35:11;;;;;;;0.98;0.40;;;11.50;70.70;;;;;;2587502;53;20999;-75
2023/01/15 08:37:39;;;;;;;2.37;0.40;;;11.40;70.60;;;;;;2341290;54;21467;-75
2023/01/15 08:40:06;;;;;;;0.45;0.30;;;11.40;70.60;;;;;;2341947;54;20965;-75
2023/01/15 08:42:33;;;;;;;0.77;0.30;;;11.30;70.40;;;;;;2344411;54;20931;-75
2023/01/15 08:44:59;;;;;;;0.28;0.20;;;11.30;70.50;;;;;;2342066;54;21258;-75
2023/01/15 08:47:25;;;;;;;0.20;0.20;;;11.30;70.30;;;;;;2341200;54;21383;-75
2023/01/15 08:49:52;;;;;;;0.10;0.10;;;11.30;70.10;;;;;;2341750;53;21318;-75
2023/01/15 08:52:18;;;;;;;0.10;0.10;;;11.20;69.90;;;;;;2377416;53;20991;-75
2023/01/15 08:54:45;;;;;;;0.20;0.20;;;11.10;69.60;;;;;;2341959;54;20942;-75
2023/01/15 08:57:12;;;;;;;0.20;0.10;;;11.10;69.60;;;;;;2528637;53;20987;-75
2023/01/15 08:59:41;;;;;;;0.22;0.20;;;11.10;69.60;;;;;;2384039;53;21550;-76
2023/01/15 09:02:12;;;;;;;0.55;0.30;;;11.00;69.40;;;;;;2377419;53;21259;-75
2023/01/15 09:04:39;;;;;;;0.62;0.30;;;10.90;70.10;;;;;;2427199;53;21223;-75
2023/01/15 09:07:05;;;;;;;0.57;0.37;;;10.90;69.40;;;;;;2341874;54;21006;-75
2023/01/15 09:09:33;;;;;;;0.32;0.30;;;10.80;69.40;;;;;;2365008;54;20955;-75
2023/01/15 09:12:00;;;;;;;0.40;0.30;;;10.80;69.40;;;;;;2342020;54;20936;-75
2023/01/15 09:14:26;;;;;;;0.40;0.30;;;10.70;69.40;;;;;;2402190;53;21280;-75
2023/01/15 09:16:52;;;;;;;0.52;0.30;;;10.70;69.50;;;;;;2358210;53;20931;-75
2023/01/15 09:19:19;;;;;;;0.52;0.30;;;10.60;69.60;;;;;;2391417;53;20915;-75
2023/01/15 09:21:45;;;;;;;0.47;0.30;;;10.60;69.80;;;;;;2341770;54;21424;-75
2023/01/15 09:24:12;;;;;;;0.40;0.30;;;10.60;69.80;;;;;;2344598;53;21239;-75
2023/01/15 09:26:39;;;;;;;0.30;0.25;;;10.50;69.80;;;;;;2341336;54;21321;-75
2023/01/15 09:29:05;;;;;;;0.57;0.30;;;10.50;69.80;;;;;;2346354;53;20944;-75
2023/01/15 09:31:32;;;;;;;0.30;0.20;;;10.40;69.80;;;;;;2392336;53;21059;-75
2023/01/15 09:33:58;;;;;;;0.40;0.20;;;10.40;69.90;;;;;;2363277;53;20960;-75
2023/01/15 09:36:27;;;;;;;0.15;0.10;;;10.40;70.00;;;;;;2345683;53;21488;-75
2023/01/15 09:38:54;;;;;;;0.20;0.20;;;10.30;70.00;;;;;;2341713;54;21023;-75
2023/01/15 09:44:24;;;;;;;0.80;0.37;;;10.30;70.10;;;;;;2373709;53;21196;-76
2023/01/15 09:47:17;;;;;;;1.33;0.50;;;10.30;70.10;;;;;;2341639;54;21026;-75
2023/01/15 09:53:08;;;;;;;1.20;0.50;;;10.20;69.80;;;;;;2341381;53;20979;-75
2023/01/15 09:55:39;;;;;;;1.35;0.55;;;10.20;69.20;;;;;;2340918;54;21030;-75
2023/01/15 09:58:06;;;;;;;1.48;0.62;;;10.20;70.20;;;;;;2448545;53;20955;-75
2023/01/15 10:00:39;;;;;;;1.70;0.60;;;10.10;70.10;;;;;;2391867;53;21309;-75
2023/01/15 10:03:44;;;;;;;1.40;0.60;;;10.10;70.00;;;;;;2353268;53;20998;-75
2023/01/15 10:06:57;;;;;;;2.10;0.80;;;10.10;69.80;;;;;;2341897;54;21003;-75
2023/01/15 10:09:36;;;;;;;1.20;0.50;;;10.00;70.10;;;;;;2341756;54;21427;-75
2023/01/15 10:12:38;;;;;;;1.45;0.60;;;10.00;70.30;;;;;;2547237;53;20924;-75
2023/01/15 10:15:49;;;;;;;1.37;0.60;;;10.00;70.10;;;;;;2391175;53;20919;-75
2023/01/15 10:18:20;;;;;;;1.23;0.50;;;10.00;69.80;;;;;;2341832;54;20999;-75
2023/01/15 10:23:42;;;;;;;1.67;0.65;;;10.00;70.50;;;;;;2342205;53;21399;-75
2023/01/15 10:26:41;;;;;;;0.95;0.47;;;9.90;70.50;;;;;;2342142;54;20979;-75
2023/01/15 10:29:37;;;;;;;2.05;0.90;;;9.90;71.00;;;;;;2372207;53;20987;-75
2023/01/15 10:33:10;;;;;;;1.62;0.70;;;10.00;70.10;;;;;;2391598;52;21392;-75
2023/01/15 10:36:01;;;;;;;1.07;0.57;;;9.90;70.70;;;;;;2420187;53;21325;-75
2023/01/15 10:41:40;;;;;;;1.95;0.60;;;9.80;71.00;;;;;;2341660;54;21902;-75
2023/01/15 10:44:16;;;;;;;2.10;0.70;;;9.80;70.90;;;;;;2342145;54;20891;-75
2023/01/15 10:46:44;;;;;;;1.62;0.73;;;9.80;71.20;;;;;;2341961;53;20982;-75
2023/01/15 10:49:14;;;;;;;1.33;0.68;;;9.70;71.30;;;;;;2341934;54;20919;-75
2023/01/15 10:52:02;;;;;;;1.37;0.50;;;9.70;71.30;;;;;;2341263;54;20895;-75
2023/01/15 10:54:37;;;;;;;2.08;0.70;;;9.70;71.00;;;;;;2341532;54;20962;-75
2023/01/15 10:57:10;;;;;;;1.67;0.60;;;9.60;71.30;;;;;;2341625;54;20919;-75
2023/01/15 10:59:59;;;;;;;2.72;0.90;;;9.60;71.30;;;;;;2361282;53;21007;-75
2023/01/15 11:02:36;;;;;;;2.70;1.08;;;9.60;70.90;;;;;;2460116;53;20935;-75
2023/01/15 11:05:03;;;;;;;2.47;1.17;;;9.60;71.40;;;;;;2386446;53;20955;-75
2023/01/15 11:07:46;;;;;;;2.05;0.90;;;9.60;71.40;;;;;;2341080;54;20931;-75
2023/01/15 11:10:39;;;;;;;2.42;0.98;;;9.50;71.10;;;;;;2343167;54;21299;-74
2023/01/15 11:21:08;;;;;;;2.80;1.33;;;9.50;71.00;;;;;;2346091;53;20903;-75
2023/01/15 11:23:34;;;;;;;2.37;1.20;;;9.40;71.10;;;;;;2341871;54;20935;-74
2023/01/15 11:26:02;;;;;;;2.28;0.90;;;9.40;71.20;;;;;;2341939;54;21086;-75
2023/01/15 11:28:46;;;;;;;4.03;1.37;;;9.40;71.20;;;;;;2341661;54;20922;-75
2023/01/15 11:31:12;;;;;;;2.67;1.00;;;9.30;70.60;;;;;;2341827;54;20907;-75
2023/01/15 11:33:39;;;;;;;2.40;1.00;;;9.30;70.90;;;;;;2382830;53;20931;-75
2023/01/15 11:36:20;;;;;;;2.08;0.90;;;9.30;70.90;;;;;;2341136;54;21201;-75
2023/01/15 11:38:47;;;;;;;2.78;0.90;;;9.30;70.50;;;;;;2340840;54;20946;-75
2023/01/15 11:52:48;;;;;;;0.70;0.40;;;9.10;70.60;;;;;;2341422;54;21901;-75
2023/01/15 11:55:17;;;;;;;1.50;0.50;;;9.10;70.60;;;;;;2341461;54;21677;-75
2023/01/15 11:57:43;;;;;;;1.10;0.60;;;9.10;70.80;;;;;;2381384;53;20956;-75
2023/01/15 12:02:03;;;;;;;1.70;0.60;;;9.00;70.70;;;;;;2341831;53;20959;-74
2023/01/15 12:04:56;;;;;;;0.80;0.40;;;9.00;69.90;;;;;;2341447;54;20916;-75
2023/01/15 12:07:24;;;;;;;0.40;0.30;;;9.00;70.70;;;;;;2341004;53;20923;-75
2023/01/15 12:14:20;;;;;;;0.50;0.30;;;9.00;70.90;;;;;;2342351;53;21420;-75
2023/01/15 12:17:16;;;;;;;3.17;1.10;;;9.00;71.20;;;;;;2341469;53;20934;-75
2023/01/15 12:20:34;;;;;;;1.48;0.60;;;9.00;71.00;;;;;;2406870;54;21022;-75
2023/01/15 12:31:42;;;;;;;1.23;0.50;;;9.00;71.20;;;;;;2341447;54;21519;-77
2023/01/15 12:34:19;;;;;;;1.20;0.50;;;9.00;70.50;;;;;;2465540;53;21364;-75
2023/01/15 12:38:20;;;;;;;1.52;0.70;;;9.00;71.50;;;;;;2587893;53;20948;-75
2023/01/15 12:40:48;;;;;;;1.23;0.50;;;9.00;71.80;;;;;;2430081;53;20978;-75
2023/01/15 12:46:18;;;;;;;0.88;0.35;;;9.00;71.90;;;;;;2341563;54;20987;-74
2023/01/15 12:48:58;;;;;;;1.17;0.50;;;9.10;72.10;;;;;;2341518;54;21262;-74
2023/01/15 12:51:34;;;;;;;1.17;0.47;;;9.10;71.90;;;;;;2379891;53;21699;-75
2023/01/15 12:54:03;;;;;;;1.05;0.52;;;9.10;72.00;;;;;;2341697;54;21487;-75
2023/01/15 12:56:49;;;;;;;0.85;0.40;;;9.10;72.10;;;;;;2341136;54;21023;-74
2023/01/15 12:59:36;;;;;;;2.22;0.70;;;9.10;72.10;;;;;;2340056;54;20951;-74
2023/01/15 13:03:29;;;;;;;1.95;0.77;;;9.10;72.20;;;;;;2341595;54;21467;-75
2023/01/15 13:06:01;;;;;;;1.80;0.90;;;9.20;71.40;;;;;;2351562;53;20970;-76
2023/01/15 13:10:00;;;;;;;1.87;0.80;;;9.10;72.10;;;;;;2352688;53;21738;-75
2023/01/15 13:12:27;;;;;;;0.60;0.40;;;9.20;72.20;;;;;;2340835;53;20995;-74
2023/01/15 13:14:53;;;;;;;1.23;0.50;;;9.20;72.50;;;;;;2342013;53;21482;-75
2023/01/15 13:18:01;;;;;;;2.35;0.50;;;9.30;72.60;;;;;;2341706;54;21010;-75
2023/01/15 13:22:00;;;;;;;1.37;0.45;;;9.30;72.70;;;;;;2345404;54;20911;-75
2023/01/15 13:24:52;;;;;;;1.12;0.50;;;9.40;72.10;;;;;;2418013;53;21467;-75
2023/01/15 13:27:24;;;;;;;2.17;0.30;;;9.40;72.90;;;;;;2367560;53;21436;-75
2023/01/15 13:30:14;;;;;;;0.93;0.40;;;9.50;73.20;;;;;;2342172;53;20926;-75
2023/01/15 13:32:42;;;;;;;1.23;0.45;;;9.50;72.80;;;;;;2341925;54;21018;-74
2023/01/15 13:35:28;;;;;;;1.17;0.40;;;9.50;73.10;;;;;;2342003;54;21023;-74
2023/01/15 13:37:58;;;;;;;1.55;0.55;;;9.60;72.70;;;;;;2420227;53;21002;-75
2023/01/15 13:40:39;;;;;;;2.83;0.80;;;9.60;73.20;;;;;;2341254;54;20939;-75
2023/01/15 13:43:06;;;;;;;1.27;0.57;;;9.70;73.10;;;;;;2383607;53;20975;-74
2023/01/15 13:45:42;;;;;;;1.23;0.43;;;9.70;73.40;;;;;;2341804;53;20962;-75
2023/01/15 13:48:19;;;;;;;1.45;0.50;;;9.70;73.30;;;;;;2342138;54;20923;-74
2023/01/15 13:50:58;;;;;;;2.15;0.50;;;9.80;73.50;;;;;;2588618;53;20896;-75
2023/01/15 13:53:37;;;;;;;2.62;0.70;;;9.80;73.50;;;;;;2341864;54;20967;-75
2023/01/15 13:56:08;;;;;;;13.05;5.72;;;9.90;73.40;;;;;;2341226;54;20986;-75
2023/01/15 13:58:50;;;;;;;7.62;3.65;;;9.90;73.50;;;;;;2342185;54;20986;-75
2023/01/15 14:01:32;;;;;;;5.75;1.55;;;10.00;72.30;;;;;;2496857;53;20947;-75
2023/01/15 14:04:21;;;;;;;3.85;1.27;;;10.00;71.90;;;;;;2342523;53;20982;-75
2023/01/15 14:06:49;;;;;;;2.00;0.70;;;10.10;72.10;;;;;;2428491;53;21301;-75
2023/01/15 14:09:49;;;;;;;2.28;0.55;;;10.10;72.20;;;;;;2496930;53;21002;-74
2023/01/15 14:13:44;;;;;;;2.10;0.70;;;10.10;71.50;;;;;;2342414;54;21230;-75
2023/01/15 14:19:49;;;;;;;1.02;0.40;;;10.20;72.00;;;;;;2342046;54;21817;-74
2023/01/15 14:25:33;;;;;;;1.00;0.40;;;10.30;71.40;;;;;;2474017;53;20907;-75
2023/01/15 14:30:56;;;;;;;1.40;0.47;;;10.30;71.80;;;;;;2342357;54;21074;-74
2023/01/15 14:34:57;;;;;;;1.98;0.50;;;10.40;71.60;;;;;;2342019;54;20968;-75
2023/01/15 14:37:29;;;;;;;2.20;0.57;;;10.50;70.90;;;;;;2341694;54;20923;-75
2023/01/15 14:39:59;;;;;;;1.70;0.57;;;10.50;72.00;;;;;;2367536;53;20939;-74
2023/01/15 14:45:28;;;;;;;1.95;0.60;;;10.50;71.80;;;;;;2341868;54;21032;-76
2023/01/15 14:47:56;;;;;;;2.05;0.55;;;10.50;71.70;;;;;;2474504;53;20931;-75
2023/01/15 14:50:40;;;;;;;2.28;0.60;;;10.50;71.80;;;;;;2341803;54;20983;-76
2023/01/15 14:53:25;;;;;;;1.48;0.65;;;10.50;71.40;;;;;;2342119;54;21014;-76
2023/01/15 14:56:03;;;;;;;1.42;0.43;;;10.50;71.00;;;;;;2342338;54;21003;-76